Time;durP1;ratioP1;P1;durP2;ratioP2;P2;SDS_P1;SDS_P2;PMS_P1;PMS_P2;Temp;Humidity;BMP_temperature;BMP_pressure;BME280_temperature;BME280_humidity;BME280_pressure;Samples;Min_cycle;Max_cycle;Signal;HPM_P1;HPM_P2
2020/12/30 00:00:46;;;;;;;32.67;21.95;;;;;;;5.39;73.92;100910.92;1769161;80;21181;-53
2020/12/30 00:03:52;;;;;;;36.00;20.97;;;;;;;5.23;74.16;100913.20;1769374;80;21368;-54
2020/12/30 00:06:59;;;;;;;34.38;19.70;;;;;;;5.24;74.49;100917.63;1769075;81;21698;-54
2020/12/30 00:10:04;;;;;;;33.02;21.48;;;;;;;5.22;74.55;100922.31;1769275;81;21185;-55
2020/12/30 00:13:11;;;;;;;41.20;22.60;;;;;;;5.16;74.58;100910.63;1769058;81;21595;-54
2020/12/30 00:16:18;;;;;;;38.00;22.02;;;;;;;5.10;74.81;100920.16;1769144;81;21339;-55
2020/12/30 00:19:24;;;;;;;43.58;25.12;;;;;;;5.13;74.93;100910.39;1769245;80;21209;-55
2020/12/30 00:22:30;;;;;;;45.17;25.60;;;;;;;5.09;74.96;100910.79;1769112;80;21507;-54
2020/12/30 00:25:37;;;;;;;46.50;26.65;;;;;;;4.99;75.16;100914.77;1769099;81;21391;-54
2020/12/30 00:28:42;;;;;;;50.23;28.05;;;;;;;4.94;75.46;100912.05;1769140;80;21411;-54
2020/12/30 00:31:49;;;;;;;49.63;27.35;;;;;;;4.86;75.72;100922.67;1769146;80;21213;-54
2020/12/30 00:34:54;;;;;;;47.62;24.02;;;;;;;4.78;76.07;100915.66;1769168;80;21332;-54
2020/12/30 00:38:00;;;;;;;56.83;27.87;;;;;;;4.72;76.52;100916.16;1769368;80;21359;-54
2020/12/30 00:41:06;;;;;;;52.62;27.95;;;;;;;4.70;76.81;100924.91;1769317;80;21265;-54
2020/12/30 00:44:11;;;;;;;54.55;27.27;;;;;;;4.73;77.06;100929.59;1769072;80;21271;-54
2020/12/30 00:47:17;;;;;;;47.48;26.27;;;;;;;4.79;77.20;100931.80;1769186;80;21352;-54
2020/12/30 00:50:23;;;;;;;53.15;26.35;;;;;;;4.82;77.22;100926.12;1769224;80;21190;-54
2020/12/30 00:53:28;;;;;;;57.80;27.73;;;;;;;4.82;77.42;100933.41;1767621;80;21213;-54
2020/12/30 00:56:34;;;;;;;60.35;28.05;;;;;;;4.92;77.51;100929.81;1769276;80;21178;-54
2020/12/30 00:59:40;;;;;;;56.88;26.60;;;;;;;5.00;77.43;100938.66;1769031;80;21221;-55
2020/12/30 01:02:47;;;;;;;58.80;28.67;;;;;;;5.07;77.41;100926.33;1769058;80;21217;-55
2020/12/30 01:05:53;;;;;;;52.62;27.98;;;;;;;5.07;77.25;100924.97;1769338;80;21194;-55
2020/12/30 01:08:58;;;;;;;51.65;26.50;;;;;;;5.10;77.31;100933.72;1769613;80;21245;-55
2020/12/30 01:12:08;;;;;;;55.92;27.77;;;;;;;5.14;77.31;100930.27;1769321;80;21177;-55
2020/12/30 01:15:15;;;;;;;51.48;25.70;;;;;;;5.16;77.30;100926.91;1769657;80;21343;-55
2020/12/30 01:18:21;;;;;;;54.70;28.35;;;;;;;5.21;77.31;100923.31;1769494;81;21322;-54
2020/12/30 01:21:27;;;;;;;54.48;26.93;;;;;;;5.23;77.19;100913.20;1769537;80;21340;-54
2020/12/30 01:24:32;;;;;;;58.23;26.37;;;;;;;5.19;77.22;100919.86;1769370;80;21209;-55
2020/12/30 01:27:38;;;;;;;52.73;25.68;;;;;;;5.12;77.39;100917.31;1769480;80;21881;-53
2020/12/30 01:30:43;;;;;;;56.45;26.77;;;;;;;5.12;77.59;100913.23;1769105;81;21339;-53
2020/12/30 01:33:51;;;;;;;51.88;25.43;;;;;;;5.09;77.65;100915.70;1769487;80;21833;-53
2020/12/30 01:37:00;;;;;;;56.60;25.80;;;;;;;5.13;77.84;100925.80;1769208;81;21372;-55
2020/12/30 01:40:06;;;;;;;48.80;24.05;;;;;;;5.17;77.81;100925.42;1769212;81;21374;-54
2020/12/30 01:43:12;;;;;;;55.45;25.57;;;;;;;5.23;77.82;100932.20;1769248;80;21438;-54
2020/12/30 01:46:19;;;;;;;56.00;27.40;;;;;;;5.27;77.81;100930.45;1769438;80;21194;-56
2020/12/30 01:49:31;;;;;;;54.42;26.45;;;;;;;5.33;77.84;100930.41;1769196;80;21391;-54
2020/12/30 01:52:39;;;;;;;54.80;26.85;;;;;;;5.42;77.75;100935.09;1770311;80;21193;-54
2020/12/30 01:55:47;;;;;;;53.40;24.45;;;;;;;5.51;77.65;100931.59;1769165;81;21197;-54
2020/12/30 01:58:52;;;;;;;53.78;27.37;;;;;;;5.60;77.48;100928.95;1769044;80;21233;-54
2020/12/30 02:02:08;;;;;;;54.35;25.32;;;;;;;5.69;77.18;100924.59;1769402;81;21705;-54
2020/12/30 02:05:17;;;;;;;54.53;26.93;;;;;;;5.73;77.00;100911.97;1769476;81;21348;-53
2020/12/30 02:08:22;;;;;;;50.35;25.97;;;;;;;5.76;76.73;100908.11;1762153;81;21300;-54
2020/12/30 02:11:31;;;;;;;61.58;28.70;;;;;;;5.82;76.58;100915.27;1769126;81;21277;-54
2020/12/30 02:14:36;;;;;;;51.95;26.90;;;;;;;5.88;76.40;100923.41;1769303;81;21232;-54
2020/12/30 02:17:42;;;;;;;50.98;25.70;;;;;;;5.91;76.13;100920.42;1769511;80;21382;-55
2020/12/30 02:20:49;;;;;;;48.70;25.92;;;;;;;5.89;75.83;100915.61;1769225;81;21414;-53
2020/12/30 02:23:55;;;;;;;49.93;26.00;;;;;;;5.87;75.74;100913.52;1769083;81;21383;-54
2020/12/30 02:27:03;;;;;;;48.80;24.77;;;;;;;5.88;75.78;100905.75;1769033;80;21382;-54
2020/12/30 02:30:08;;;;;;;49.40;24.98;;;;;;;5.81;75.49;100912.17;1769141;81;21292;-54
2020/12/30 02:33:16;;;;;;;50.28;25.32;;;;;;;5.80;75.62;100909.07;1769286;80;21249;-53
2020/12/30 02:36:22;;;;;;;50.23;26.02;;;;;;;5.86;75.61;100910.45;1769264;81;21182;-54
2020/12/30 02:39:29;;;;;;;56.70;26.68;;;;;;;5.81;75.56;100914.02;1769296;81;21221;-54
2020/12/30 02:42:34;;;;;;;59.83;27.50;;;;;;;5.82;75.60;100907.61;1769074;80;21273;-54
2020/12/30 02:45:39;;;;;;;55.75;27.32;;;;;;;5.81;75.52;100905.87;1769153;81;21236;-55
2020/12/30 02:48:45;;;;;;;52.88;25.68;;;;;;;5.76;75.66;100902.20;1769197;80;21414;-55
2020/12/30 02:51:52;;;;;;;53.05;25.52;;;;;;;5.72;75.91;100899.36;1769276;80;21248;-55
2020/12/30 02:54:57;;;;;;;54.90;27.48;;;;;;;5.70;76.20;100903.22;1767551;80;21363;-53
2020/12/30 02:58:02;;;;;;;48.10;25.00;;;;;;;5.64;76.41;100905.98;1768991;81;21248;-53
2020/12/30 03:01:07;;;;;;;55.92;26.97;;;;;;;5.55;76.69;100903.20;1768921;81;21229;-56
2020/12/30 03:04:14;;;;;;;49.03;24.65;;;;;;;5.47;77.06;100898.39;1769840;80;21252;-54
2020/12/30 03:07:19;;;;;;;50.17;24.70;;;;;;;5.48;77.37;100903.34;1769400;80;21343;-54
2020/12/30 03:10:26;;;;;;;51.13;25.23;;;;;;;5.48;77.52;100895.20;1769350;80;21348;-54
2020/12/30 03:13:32;;;;;;;51.13;25.20;;;;;;;5.51;77.60;100901.72;1769245;80;21363;-53
2020/12/30 03:16:37;;;;;;;47.45;24.65;;;;;;;5.54;77.65;100904.17;1769254;80;21202;-54
2020/12/30 03:19:43;;;;;;;48.70;25.45;;;;;;;5.55;77.61;100904.55;1768869;80;21967;-53
2020/12/30 03:22:48;;;;;;;47.83;24.12;;;;;;;5.61;77.72;100904.02;1769111;80;21431;-54
2020/12/30 03:25:53;;;;;;;44.48;23.45;;;;;;;5.61;77.55;100903.50;1769128;81;21217;-55
2020/12/30 03:29:01;;;;;;;44.48;22.82;;;;;;;5.62;77.50;100906.60;1769024;81;21316;-55
2020/12/30 03:32:06;;;;;;;45.50;22.82;;;;;;;5.63;77.47;100911.52;1769116;81;21340;-55
2020/12/30 03:35:11;;;;;;;42.88;22.42;;;;;;;5.59;77.31;100916.86;1769051;80;21352;-54
2020/12/30 03:38:17;;;;;;;44.83;23.60;;;;;;;5.50;77.44;100919.02;1769297;80;21351;-54
2020/12/30 03:41:24;;;;;;;46.02;22.55;;;;;;;5.46;77.51;100912.97;1768671;81;21248;-52
2020/12/30 03:44:28;;;;;;;42.15;22.50;;;;;;;5.47;77.77;100916.56;1768744;81;21356;-51
2020/12/30 03:47:33;;;;;;;44.23;22.17;;;;;;;5.48;77.90;100920.98;1768439;81;21762;-51
2020/12/30 03:50:39;;;;;;;46.95;23.07;;;;;;;5.47;78.11;100920.63;1768788;81;21312;-52
2020/12/30 03:53:43;;;;;;;47.90;23.40;;;;;;;5.53;78.26;100918.75;1768382;81;21388;-51
2020/12/30 03:56:49;;;;;;;43.78;21.95;;;;;;;5.56;78.21;100929.34;1767402;80;21378;-52
2020/12/30 03:59:55;;;;;;;46.37;22.20;;;;;;;5.61;78.36;100925.74;1769019;80;21237;-51
2020/12/30 04:03:05;;;;;;;46.15;23.55;;;;;;;5.67;78.28;100922.50;1768942;80;21248;-52
2020/12/30 04:06:10;;;;;;;39.45;20.70;;;;;;;5.70;78.23;100927.18;1769392;80;21332;-51
2020/12/30 04:09:15;;;;;;;44.60;23.67;;;;;;;5.80;78.15;100932.69;1769276;81;21261;-51
2020/12/30 04:12:21;;;;;;;47.40;23.83;;;;;;;5.80;77.86;100934.88;1769688;80;21390;-51
2020/12/30 04:15:28;;;;;;;47.93;23.40;;;;;;;5.80;77.82;100938.95;1768607;81;21173;-51
2020/12/30 04:18:33;;;;;;;47.75;22.73;;;;;;;5.89;77.82;100937.34;1768816;80;21717;-51
2020/12/30 04:21:39;;;;;;;37.75;20.80;;;;;;;5.91;77.47;100938.08;1768705;81;21857;-51
2020/12/30 04:24:45;;;;;;;47.65;24.70;;;;;;;5.95;77.45;100936.31;1768719;81;21977;-50
2020/12/30 04:27:49;;;;;;;44.55;23.22;;;;;;;5.93;77.26;100934.74;1768577;81;21905;-51
2020/12/30 04:30:55;;;;;;;47.45;24.52;;;;;;;5.96;77.33;100943.98;1769077;81;21395;-51
2020/12/30 04:34:01;;;;;;;52.65;25.75;;;;;;;5.99;77.25;100945.91;1769061;81;21352;-51
2020/12/30 04:37:07;;;;;;;50.35;24.18;;;;;;;6.03;77.21;100945.16;1769006;81;21240;-50
2020/12/30 04:40:12;;;;;;;43.35;22.25;;;;;;;6.08;77.02;100939.70;1768902;81;21471;-50
2020/12/30 04:43:18;;;;;;;49.53;25.50;;;;;;;6.10;76.93;100927.34;1769062;81;21185;-52
2020/12/30 04:46:23;;;;;;;47.33;24.07;;;;;;;6.06;76.81;100929.45;1769163;81;21435;-51
2020/12/30 04:49:29;;;;;;;48.25;24.90;;;;;;;6.05;76.79;100939.10;1768995;81;21344;-52
2020/12/30 04:52:35;;;;;;;51.30;26.73;;;;;;;6.04;76.96;100930.59;1769134;81;21749;-50
2020/12/30 04:55:41;;;;;;;46.20;24.63;;;;;;;6.03;76.92;100935.64;1769357;80;21387;-51
2020/12/30 04:58:47;;;;;;;47.40;24.40;;;;;;;6.08;77.11;100933.39;1765934;80;21699;-51
2020/12/30 05:02:10;;;;;;;47.03;24.75;;;;;;;6.12;76.94;100932.11;1769725;80;21316;-51
2020/12/30 05:05:16;;;;;;;46.85;24.45;;;;;;;6.14;76.95;100930.66;1768993;81;21340;-52
2020/12/30 05:08:22;;;;;;;55.52;27.40;;;;;;;6.17;76.88;100925.78;1769111;80;21347;-51
2020/12/30 05:11:30;;;;;;;47.65;23.98;;;;;;;6.20;76.84;100919.23;1769205;80;21359;-51
2020/12/30 05:14:36;;;;;;;49.95;26.27;;;;;;;6.20;76.56;100928.23;1769190;80;21221;-51
2020/12/30 05:17:43;;;;;;;53.98;25.68;;;;;;;6.15;76.57;100931.87;1769302;80;21225;-50
2020/12/30 05:20:48;;;;;;;47.00;24.37;;;;;;;6.15;76.63;100941.39;1769307;81;21655;-53
2020/12/30 05:23:54;;;;;;;48.48;24.90;;;;;;;6.17;76.68;100943.45;1769447;80;21213;-51
2020/12/30 05:27:01;;;;;;;51.13;26.55;;;;;;;6.15;76.44;100946.83;1758753;80;21240;-51
2020/12/30 05:30:07;;;;;;;46.48;25.05;;;;;;;6.10;76.52;100945.00;1751201;81;21259;-50
2020/12/30 05:33:13;;;;;;;43.35;24.57;;;;;;;6.07;76.58;100954.78;1706478;83;21275;-51
2020/12/30 05:36:20;;;;;;;50.88;26.23;;;;;;;6.01;76.74;100952.58;1692517;85;21364;-50
2020/12/30 05:39:37;;;;;;;45.55;25.85;;;;;;;6.03;76.80;100961.46;1678917;85;21599;-50
2020/12/30 05:42:42;;;;;;;46.18;24.27;;;;;;;6.00;76.82;100961.73;1690887;84;21383;-50
2020/12/30 05:46:00;;;;;;;45.92;25.43;;;;;;;5.98;77.01;100957.79;1739950;82;21335;-50
2020/12/30 05:49:06;;;;;;;44.63;25.90;;;;;;;5.99;77.06;100954.59;1739681;82;21252;-51
2020/12/30 05:52:28;;;;;;;46.33;27.07;;;;;;;6.03;77.09;100954.18;1740215;82;21188;-51
2020/12/30 05:55:34;;;;;;;48.17;26.90;;;;;;;6.07;77.13;100964.30;1739906;82;21245;-51
2020/12/30 05:58:45;;;;;;;46.28;26.10;;;;;;;6.11;76.95;100961.66;1739700;80;21280;-51
2020/12/30 06:01:50;;;;;;;47.08;27.30;;;;;;;6.08;76.79;100959.21;1733020;82;21201;-52
2020/12/30 06:04:56;;;;;;;52.60;28.25;;;;;;;6.02;76.96;100963.83;1739208;82;21217;-53
2020/12/30 06:08:05;;;;;;;59.08;31.17;;;;;;;6.01;77.03;100967.52;1747896;80;21189;-51
2020/12/30 06:11:11;;;;;;;56.80;28.67;;;;;;;6.03;77.23;100973.69;1763076;80;21212;-51
2020/12/30 06:14:16;;;;;;;51.05;28.92;;;;;;;6.05;77.30;100964.43;1753145;80;21188;-50
2020/12/30 06:17:20;;;;;;;139.45;85.50;;;;;;;6.13;77.27;100966.96;1765212;81;21575;-51
2020/12/30 06:20:33;;;;;;;51.55;32.33;;;;;;;6.16;77.28;100973.00;1759632;80;21184;-51
2020/12/30 06:23:42;;;;;;;49.18;28.42;;;;;;;6.22;77.14;100977.89;1762725;81;21201;-51
2020/12/30 06:26:46;;;;;;;51.90;29.25;;;;;;;6.29;77.16;100986.37;1761472;80;21812;-52
2020/12/30 06:29:51;;;;;;;53.90;32.42;;;;;;;6.36;76.97;100989.78;1757192;80;21776;-51
2020/12/30 06:32:57;;;;;;;52.50;31.07;;;;;;;6.34;76.63;100988.20;1767449;81;21208;-51
2020/12/30 06:36:03;;;;;;;53.35;29.52;;;;;;;6.33;76.83;100987.86;1757040;80;21266;-51
2020/12/30 06:39:09;;;;;;;50.92;30.57;;;;;;;6.35;76.76;100992.64;1758182;80;21235;-52
2020/12/30 06:42:14;;;;;;;55.80;32.65;;;;;;;6.28;76.52;100985.51;1769250;81;21725;-52
2020/12/30 06:45:45;;;;;;;59.08;34.10;;;;;;;6.24;76.83;100979.99;1762601;80;21534;-51
2020/12/30 06:49:10;;;;;;;61.20;33.15;;;;;;;6.23;76.66;100983.72;1762858;81;21781;-51
2020/12/30 06:52:33;;;;;;;49.85;30.25;;;;;;;6.23;76.85;100981.00;1759470;81;21840;-52
2020/12/30 06:55:54;;;;;;;55.15;30.90;;;;;;;6.32;76.92;100982.03;1759140;81;21398;-52
2020/12/30 06:59:00;;;;;;;51.30;30.60;;;;;;;6.39;76.76;100996.30;1755321;78;21758;-52
2020/12/30 07:02:16;;;;;;;53.98;31.73;;;;;;;6.41;76.56;100995.69;1760554;80;21310;-51
2020/12/30 07:05:28;;;;;;;61.10;36.77;;;;;;;6.41;76.63;100992.97;1766400;80;21769;-51
2020/12/30 07:08:45;;;;;;;55.98;32.67;;;;;;;6.45;76.57;100986.28;1738088;81;21181;-52
2020/12/30 07:12:02;;;;;;;50.88;29.85;;;;;;;6.47;76.44;100989.70;1745372;80;21200;-52
2020/12/30 07:15:07;;;;;;;54.80;30.85;;;;;;;6.48;76.46;100999.60;1741044;82;21190;-52
2020/12/30 07:18:14;;;;;;;52.65;31.87;;;;;;;6.49;76.39;100994.52;1756199;80;21192;-51
2020/12/30 07:21:21;;;;;;;50.80;29.87;;;;;;;6.55;76.42;101003.48;1754131;80;21200;-51
2020/12/30 07:24:35;;;;;;;50.08;30.40;;;;;;;6.62;76.25;100993.80;1758734;80;21829;-51
2020/12/30 07:27:40;;;;;;;47.95;29.25;;;;;;;6.61;76.16;101005.66;1763200;81;21652;-52
2020/12/30 07:30:45;;;;;;;48.38;29.07;;;;;;;6.64;76.13;100999.98;1763553;80;21687;-50
2020/12/30 07:33:51;;;;;;;50.95;29.95;;;;;;;6.67;76.07;101001.55;1777952;80;21232;-51
2020/12/30 07:36:57;;;;;;;50.05;29.90;;;;;;;6.71;76.01;101002.98;1761461;80;21833;-49
2020/12/30 07:40:02;;;;;;;47.93;28.75;;;;;;;6.76;75.97;100999.36;1764654;80;21200;-49
2020/12/30 07:43:07;;;;;;;48.85;28.10;;;;;;;6.80;75.89;101000.83;1753996;80;21247;-48
2020/12/30 07:46:27;;;;;;;49.42;28.90;;;;;;;6.82;75.82;101007.84;1756444;80;21181;-48
2020/12/30 07:49:34;;;;;;;44.35;26.50;;;;;;;6.86;75.84;101003.87;1774172;80;21239;-49
2020/12/30 07:52:40;;;;;;;43.83;27.13;;;;;;;6.92;75.78;100999.23;1765258;80;21299;-49
2020/12/30 07:55:47;;;;;;;45.88;26.82;;;;;;;6.93;75.56;101008.27;1768127;80;21236;-48
2020/12/30 07:58:55;;;;;;;45.75;26.55;;;;;;;6.95;75.64;101009.84;1776712;80;21381;-48
2020/12/30 08:02:20;;;;;;;43.42;27.75;;;;;;;6.96;75.43;101025.16;1778160;79;21254;-48
2020/12/30 08:05:25;;;;;;;41.90;26.80;;;;;;;6.94;75.67;101014.93;1778707;80;21213;-47
2020/12/30 08:08:30;;;;;;;42.83;24.55;;;;;;;7.05;75.78;101016.19;1765117;80;21345;-50
2020/12/30 08:11:35;;;;;;;46.33;30.27;;;;;;;7.13;75.58;101008.20;1768956;80;21788;-49
2020/12/30 08:14:43;;;;;;;34.65;22.10;;;;;;;7.14;75.30;101003.09;1760668;80;21271;-49
2020/12/30 08:17:49;;;;;;;38.58;24.02;;;;;;;7.22;75.35;101011.92;1732007;82;21774;-48
2020/12/30 08:20:55;;;;;;;41.45;23.20;;;;;;;7.24;75.10;101009.94;1737723;82;21769;-49
2020/12/30 08:24:18;;;;;;;38.10;23.40;;;;;;;7.22;75.03;101007.84;1740423;80;21777;-49
2020/12/30 08:27:24;;;;;;;;;;;;;;;7.23;75.14;101000.89;1740968;82;21216;-49
2020/12/30 08:30:30;;;;;;;37.17;22.67;;;;;;;7.23;75.18;101000.89;1738952;82;20572;-49
2020/12/30 08:33:36;;;;;;;40.75;23.95;;;;;;;7.25;75.20;101005.70;1739427;82;21399;-50
2020/12/30 08:36:41;;;;;;;41.88;23.67;;;;;;;7.28;75.19;101000.47;1751312;80;21749;-48
2020/12/30 08:39:51;;;;;;;40.67;23.18;;;;;;;7.30;75.08;100995.27;1748233;80;21204;-49
2020/12/30 08:43:28;;;;;;;42.43;25.52;;;;;;;7.34;75.12;101006.22;1766298;80;21856;-49
2020/12/30 08:46:33;;;;;;;39.63;23.57;;;;;;;7.36;75.13;101005.59;1766830;80;21200;-49
2020/12/30 08:49:39;;;;;;;37.38;22.80;;;;;;;7.40;74.90;101002.09;1763456;80;21189;-49
2020/12/30 08:52:50;;;;;;;39.40;23.65;;;;;;;7.36;74.94;101006.08;1744152;80;21264;-47
2020/12/30 08:56:04;;;;;;;44.45;24.02;;;;;;;7.36;75.10;101011.03;1755597;80;21196;-48
2020/12/30 08:59:09;;;;;;;51.05;24.75;;;;;;;7.36;75.08;101004.72;1758726;81;21212;-48
2020/12/30 09:02:23;;;;;;;42.15;22.77;;;;;;;7.39;75.07;101000.34;1757343;80;21382;-50
2020/12/30 09:05:38;;;;;;;49.90;25.10;;;;;;;7.41;75.09;101003.31;1765813;81;21373;-50
2020/12/30 09:08:44;;;;;;;38.70;23.52;;;;;;;7.40;75.14;101006.17;1765663;81;21217;-48
2020/12/30 09:11:56;;;;;;;45.23;22.58;;;;;;;7.40;75.23;100999.37;1768103;81;21320;-50
2020/12/30 09:15:01;;;;;;;38.05;22.17;;;;;;;7.43;75.25;101003.17;1768817;80;21166;-49
2020/12/30 09:18:08;;;;;;;47.58;25.32;;;;;;;7.45;75.18;100997.09;1762608;81;21370;-49
2020/12/30 09:21:30;;;;;;;41.42;23.47;;;;;;;7.39;75.14;101009.87;1765576;81;21334;-49
2020/12/30 09:24:47;;;;;;;44.35;22.32;;;;;;;7.37;75.39;101001.85;1766018;81;21244;-48
2020/12/30 09:27:59;;;;;;;43.75;23.87;;;;;;;7.40;75.40;101000.20;1768248;80;21208;-50
2020/12/30 09:31:06;;;;;;;37.48;21.30;;;;;;;7.46;75.49;100999.67;1767602;81;21240;-49
2020/12/30 09:34:12;;;;;;;43.33;22.00;;;;;;;7.58;75.30;100996.29;1753957;80;21778;-49
2020/12/30 09:37:19;;;;;;;36.68;21.75;;;;;;;7.64;75.20;100996.59;1756221;80;21193;-49
2020/12/30 09:40:30;;;;;;;46.55;23.15;;;;;;;7.73;75.00;101004.91;1755587;80;21350;-50
2020/12/30 09:43:35;;;;;;;37.93;21.57;;;;;;;7.77;74.80;100999.55;1767747;81;21240;-48
2020/12/30 09:46:42;;;;;;;38.60;22.17;;;;;;;7.77;74.64;100999.55;1761109;80;21220;-49
2020/12/30 09:49:48;;;;;;;38.42;21.82;;;;;;;7.79;74.62;100995.67;1741137;82;21197;-49
2020/12/30 09:52:53;;;;;;;38.48;23.25;;;;;;;7.83;74.61;100988.08;1741224;82;21817;-49
2020/12/30 09:55:58;;;;;;;54.08;31.48;;;;;;;7.92;74.38;100991.29;1748516;80;22014;-48
2020/12/30 09:59:04;;;;;;;50.25;28.67;;;;;;;7.99;74.29;100986.47;1772403;80;21834;-49
2020/12/30 10:02:09;;;;;;;40.98;23.00;;;;;;;8.12;74.07;100981.58;1743314;80;21658;-49
2020/12/30 10:05:15;;;;;;;36.35;22.32;;;;;;;8.25;73.76;100984.91;1760611;81;21229;-49
2020/12/30 10:08:20;;;;;;;32.73;20.75;;;;;;;8.32;73.54;100979.73;1770811;80;21223;-49
2020/12/30 10:11:26;;;;;;;39.20;23.87;;;;;;;8.46;73.39;100975.16;1771177;80;21189;-49
2020/12/30 10:14:31;;;;;;;37.35;23.10;;;;;;;8.57;73.13;100977.22;1771540;80;21857;-49
2020/12/30 10:17:36;;;;;;;33.53;19.23;;;;;;;8.66;72.85;100980.41;1771208;80;21892;-49
2020/12/30 10:20:41;;;;;;;35.85;21.25;;;;;;;8.71;72.49;100980.83;1771169;81;21312;-49
2020/12/30 10:23:45;;;;;;;34.90;21.15;;;;;;;8.77;72.29;100977.99;1765736;80;21260;-49
2020/12/30 10:26:50;;;;;;;32.83;20.17;;;;;;;8.81;72.11;100978.06;1795564;79;21259;-50
2020/12/30 10:29:55;;;;;;;32.65;20.77;;;;;;;8.81;71.95;100969.88;1769976;79;21197;-50
2020/12/30 10:33:00;;;;;;;34.13;20.65;;;;;;;8.79;71.98;100961.84;1766862;80;21188;-50
2020/12/30 10:36:06;;;;;;;30.35;18.70;;;;;;;8.77;71.86;100950.70;1758090;81;21236;-49
2020/12/30 10:39:12;;;;;;;32.70;19.67;;;;;;;8.73;71.98;100958.35;1740029;82;21220;-50
2020/12/30 10:42:18;;;;;;;34.78;20.05;;;;;;;8.69;71.97;100954.67;1748622;81;21702;-49
2020/12/30 10:45:23;;;;;;;31.33;18.40;;;;;;;8.68;72.16;100945.66;1765625;80;21347;-49
2020/12/30 10:48:28;;;;;;;27.70;17.87;;;;;;;8.74;72.12;100942.81;1769000;79;21864;-54
2020/12/30 10:51:33;;;;;;;28.15;17.95;;;;;;;8.80;72.15;100944.44;1771483;80;21323;-50
2020/12/30 10:54:42;;;;;;;35.83;20.50;;;;;;;8.86;72.08;100952.02;1760169;80;21353;-51
2020/12/30 10:57:45;;;;;;;32.67;18.85;;;;;;;8.87;71.82;100940.59;1761545;80;21194;-50
2020/12/30 11:00:51;;;;;;;35.15;19.90;;;;;;;8.83;71.73;100944.66;1749755;80;21467;-50
2020/12/30 11:03:56;;;;;;;27.87;17.90;;;;;;;8.77;71.83;100938.41;1765232;80;21207;-50
2020/12/30 11:07:05;;;;;;;30.72;19.12;;;;;;;8.75;71.97;100941.82;1757861;80;21852;-49
2020/12/30 11:10:08;;;;;;;33.85;20.10;;;;;;;8.72;72.04;100936.66;1753330;80;21255;-49
2020/12/30 11:13:14;;;;;;;31.68;20.02;;;;;;;8.73;72.14;100929.69;1751978;80;21970;-50
2020/12/30 11:16:19;;;;;;;34.35;19.73;;;;;;;8.74;72.07;100930.52;1754998;80;21351;-49
2020/12/30 11:19:25;;;;;;;35.43;19.77;;;;;;;8.69;72.08;100937.80;1768602;80;21705;-48
2020/12/30 11:22:34;;;;;;;29.65;20.02;;;;;;;8.63;72.23;100930.72;1762615;79;21251;-49
2020/12/30 11:25:39;;;;;;;32.17;19.92;;;;;;;8.57;72.35;100926.73;1762352;80;21316;-50
2020/12/30 11:28:44;;;;;;;31.87;19.35;;;;;;;8.55;72.39;100929.24;1757001;80;21209;-53
2020/12/30 11:31:51;;;;;;;28.47;18.05;;;;;;;8.53;72.55;100918.48;1740333;82;21173;-52
2020/12/30 11:34:57;;;;;;;32.40;19.45;;;;;;;8.56;72.57;100923.64;1750189;80;21197;-52
2020/12/30 11:38:01;;;;;;;29.18;17.23;;;;;;;8.53;72.56;100909.45;1761930;80;21331;-53
2020/12/30 11:41:08;;;;;;;35.03;19.37;;;;;;;8.55;72.71;100916.47;1763643;80;21315;-53
2020/12/30 11:44:15;;;;;;;30.55;19.75;;;;;;;8.57;72.68;100914.46;1772565;80;21364;-53
2020/12/30 11:47:20;;;;;;;30.70;18.85;;;;;;;8.58;72.72;100905.25;1757089;80;21181;-53
2020/12/30 11:50:25;;;;;;;28.47;18.80;;;;;;;8.64;72.72;100915.55;1764557;80;21177;-52
2020/12/30 11:53:31;;;;;;;33.02;19.65;;;;;;;8.66;72.58;100915.41;1746028;81;21331;-53
2020/12/30 11:56:36;;;;;;;30.90;17.87;;;;;;;8.68;72.65;100910.67;1750986;80;21184;-53
2020/12/30 11:59:41;;;;;;;27.10;17.67;;;;;;;8.76;72.65;100920.33;1768304;80;21192;-53
2020/12/30 12:02:47;;;;;;;28.70;17.73;;;;;;;8.85;72.45;100916.18;1740284;82;21228;-53
2020/12/30 12:05:52;;;;;;;25.27;17.52;;;;;;;8.92;72.13;100914.58;1740979;79;21316;-52
2020/12/30 12:08:59;;;;;;;31.23;19.25;;;;;;;8.89;71.75;100917.61;1754376;81;21817;-52
2020/12/30 12:12:05;;;;;;;33.40;17.27;;;;;;;8.78;71.67;100916.95;1760245;81;21545;-53
2020/12/30 12:15:14;;;;;;;32.50;18.30;;;;;;;8.70;71.69;100919.57;1756429;81;21172;-53
2020/12/30 12:18:20;;;;;;;27.20;17.32;;;;;;;8.58;71.84;100920.27;1759028;80;21220;-53
2020/12/30 12:21:24;;;;;;;28.32;18.23;;;;;;;8.48;71.96;100924.89;1740848;82;21339;-54
2020/12/30 12:24:29;;;;;;;27.75;17.67;;;;;;;8.34;72.15;100912.25;1749159;80;21468;-54
2020/12/30 12:27:34;;;;;;;30.68;18.07;;;;;;;8.27;72.46;100923.39;1758554;80;21178;-52
2020/12/30 12:30:39;;;;;;;30.65;17.62;;;;;;;8.17;72.66;100920.66;1741713;82;21197;-53
2020/12/30 12:33:45;;;;;;;32.55;19.30;;;;;;;8.09;72.82;100933.29;1761705;80;21323;-53
2020/12/30 12:36:50;;;;;;;28.77;18.52;;;;;;;8.02;73.06;100929.45;1767965;81;21338;-53
2020/12/30 12:39:56;;;;;;;26.12;16.90;;;;;;;8.00;73.30;100927.36;1764255;81;21186;-52
2020/12/30 12:43:02;;;;;;;31.85;18.35;;;;;;;8.00;73.37;100926.00;1768845;80;21821;-52
2020/12/30 12:46:07;;;;;;;42.25;26.90;;;;;;;7.95;73.43;100918.27;1769817;81;21239;-52
2020/12/30 12:49:12;;;;;;;29.77;17.62;;;;;;;7.92;73.57;100917.20;1770618;80;21267;-54
2020/12/30 12:52:19;;;;;;;33.65;19.30;;;;;;;7.91;73.71;100918.70;1765344;81;21185;-52
2020/12/30 12:55:25;;;;;;;32.45;19.82;;;;;;;7.89;73.74;100922.07;1766742;81;21200;-52
2020/12/30 12:58:30;;;;;;;35.68;19.80;;;;;;;7.88;73.89;100927.18;1762191;80;22005;-52
2020/12/30 13:01:35;;;;;;;30.95;20.08;;;;;;;7.88;73.96;100918.48;1768068;80;21342;-52
2020/12/30 13:04:40;;;;;;;32.55;18.92;;;;;;;7.87;73.85;100923.58;1768476;80;21764;-53
2020/12/30 13:07:46;;;;;;;30.82;19.82;;;;;;;7.81;74.00;100923.30;1740226;81;21733;-53
2020/12/30 13:10:52;;;;;;;32.45;19.60;;;;;;;7.76;74.12;100919.66;1749865;81;21157;-52
2020/12/30 13:13:57;;;;;;;30.57;19.23;;;;;;;7.74;74.21;100919.45;1764670;81;21409;-53
2020/12/30 13:17:02;;;;;;;33.85;20.25;;;;;;;7.72;74.22;100910.06;1764630;81;21185;-52
2020/12/30 13:20:07;;;;;;;31.82;20.30;;;;;;;7.68;74.27;100903.66;1733832;82;21816;-53
2020/12/30 13:23:12;;;;;;;34.00;20.75;;;;;;;7.61;74.34;100905.60;1735118;82;21264;-53
2020/12/30 13:26:17;;;;;;;34.15;19.10;;;;;;;7.54;74.46;100902.25;1734876;81;21724;-51
2020/12/30 13:29:23;;;;;;;35.68;21.23;;;;;;;7.48;74.68;100898.22;1757871;80;21596;-52
2020/12/30 13:32:29;;;;;;;31.82;20.17;;;;;;;7.44;74.89;100900.88;1766928;81;21282;-53
2020/12/30 13:35:35;;;;;;;28.47;18.92;;;;;;;7.44;75.09;100907.69;1765772;81;21192;-53
2020/12/30 13:38:41;;;;;;;29.35;18.77;;;;;;;7.47;75.12;100901.08;1770583;80;21212;-52
2020/12/30 13:41:46;;;;;;;38.05;20.55;;;;;;;7.46;75.10;100904.83;1752761;80;21519;-53
2020/12/30 13:44:53;;;;;;;29.35;18.35;;;;;;;7.42;74.96;100901.52;1768783;81;21193;-53
2020/12/30 13:47:58;;;;;;;33.98;19.85;;;;;;;7.41;74.92;100907.98;1769323;80;21169;-53
2020/12/30 13:51:03;;;;;;;33.83;18.98;;;;;;;7.36;74.88;100900.73;1762413;81;21194;-53
2020/12/30 13:54:12;;;;;;;32.08;18.30;;;;;;;7.29;74.86;100898.73;1753794;81;21287;-52
2020/12/30 13:57:17;;;;;;;32.78;19.25;;;;;;;7.19;74.92;100897.36;1757592;80;21816;-53
2020/12/30 14:00:23;;;;;;;32.83;19.35;;;;;;;7.11;74.99;100889.05;1769768;81;21180;-54
2020/12/30 14:03:31;;;;;;;33.18;19.15;;;;;;;7.05;75.18;100885.53;1770888;80;22057;-54
2020/12/30 14:06:36;;;;;;;33.90;19.67;;;;;;;7.03;75.13;100886.66;1771462;80;21193;-53
2020/12/30 14:09:41;;;;;;;28.40;19.35;;;;;;;7.00;75.26;100893.25;1769008;80;21724;-53
2020/12/30 14:12:46;;;;;;;35.63;19.77;;;;;;;6.96;75.22;100875.98;1770711;80;21828;-53
2020/12/30 14:15:50;;;;;;;35.00;20.32;;;;;;;6.92;75.28;100880.84;1765915;80;21777;-54
2020/12/30 14:18:56;;;;;;;32.95;20.45;;;;;;;6.88;75.30;100882.11;1767836;80;21203;-53